sensor_id;sensor_type;location;lat;lon;timestamp;pressure;altitude;pressure_sealevel;temperature;humidity
48244;BME280;34053;51.088;6.572;2023-04-22T00:01:27;100246.75;;;12.86;61.72
48244;BME280;34053;51.088;6.572;2023-04-22T00:03:58;100248.66;;;12.82;61.62
48244;BME280;34053;51.088;6.572;2023-04-22T00:06:28;100246.94;;;12.81;61.93
48244;BME280;34053;51.088;6.572;2023-04-22T00:08:59;100235.78;;;12.76;61.86
48244;BME280;34053;51.088;6.572;2023-04-22T00:11:29;100242.06;;;12.72;62.32
48244;BME280;34053;51.088;6.572;2023-04-22T00:14:00;100242.44;;;12.64;62.15
48244;BME280;34053;51.088;6.572;2023-04-22T00:16:30;100239.91;;;12.61;61.84
48244;BME280;34053;51.088;6.572;2023-04-22T00:19:04;100240.72;;;12.63;62.23
48244;BME280;34053;51.088;6.572;2023-04-22T00:21:37;100239.84;;;12.63;62.09
48244;BME280;34053;51.088;6.572;2023-04-22T00:24:07;100236.56;;;12.57;62.01
48244;BME280;34053;51.088;6.572;2023-04-22T00:26:38;100240.09;;;12.56;62.23
48244;BME280;34053;51.088;6.572;2023-04-22T00:29:08;100236.84;;;12.51;62.59
48244;BME280;34053;51.088;6.572;2023-04-22T00:31:39;100234.13;;;12.53;62.29
48244;BME280;34053;51.088;6.572;2023-04-22T00:34:09;100236.69;;;12.54;62.53
48244;BME280;34053;51.088;6.572;2023-04-22T00:36:39;100236.69;;;12.54;62.70
48244;BME280;34053;51.088;6.572;2023-04-22T00:39:10;100236.63;;;12.56;62.72
48244;BME280;34053;51.088;6.572;2023-04-22T00:41:42;100230.50;;;12.55;62.53
48244;BME280;34053;51.088;6.572;2023-04-22T00:44:12;100235.13;;;12.50;62.57
48244;BME280;34053;51.088;6.572;2023-04-22T00:46:43;100234.31;;;12.48;62.35
48244;BME280;34053;51.088;6.572;2023-04-22T00:49:15;100234.19;;;12.51;62.62
48244;BME280;34053;51.088;6.572;2023-04-22T00:51:46;100234.25;;;12.50;62.85
48244;BME280;34053;51.088;6.572;2023-04-22T00:54:16;100239.59;;;12.48;62.79
48244;BME280;34053;51.088;6.572;2023-04-22T00:56:47;100229.97;;;12.47;63.36
48244;BME280;34053;51.088;6.572;2023-04-22T00:59:18;100225.09;;;12.38;62.88
48244;BME280;34053;51.088;6.572;2023-04-22T01:01:49;100226.94;;;12.36;62.63
48244;BME280;34053;51.088;6.572;2023-04-22T01:04:20;100232.19;;;12.36;62.92
48244;BME280;34053;51.088;6.572;2023-04-22T01:06:51;100234.00;;;12.35;62.98
48244;BME280;34053;51.088;6.572;2023-04-22T01:09:23;100233.25;;;12.32;63.30
48244;BME280;34053;51.088;6.572;2023-04-22T01:11:53;100235.91;;;12.32;62.88
48244;BME280;34053;51.088;6.572;2023-04-22T01:14:25;100229.91;;;12.28;63.06
48244;BME280;34053;51.088;6.572;2023-04-22T01:16:55;100228.25;;;12.25;63.44
48244;BME280;34053;51.088;6.572;2023-04-22T01:19:27;100229.91;;;12.28;63.25
48244;BME280;34053;51.088;6.572;2023-04-22T01:22:00;100224.72;;;12.26;63.02
48244;BME280;34053;51.088;6.572;2023-04-22T01:24:32;100236.16;;;12.25;63.07
48244;BME280;34053;51.088;6.572;2023-04-22T01:27:02;100231.81;;;12.24;63.20
48244;BME280;34053;51.088;6.572;2023-04-22T01:29:35;100237.06;;;12.24;63.37
48244;BME280;34053;51.088;6.572;2023-04-22T01:32:06;100230.91;;;12.25;63.73
48244;BME280;34053;51.088;6.572;2023-04-22T01:34:36;100236.00;;;12.28;63.57
48244;BME280;34053;51.088;6.572;2023-04-22T01:37:07;100236.00;;;12.28;63.99
48244;BME280;34053;51.088;6.572;2023-04-22T01:39:37;100236.88;;;12.29;63.77
48244;BME280;34053;51.088;6.572;2023-04-22T01:42:08;100235.16;;;12.28;63.67
48244;BME280;34053;51.088;6.572;2023-04-22T01:44:40;100239.56;;;12.27;63.77
48244;BME280;34053;51.088;6.572;2023-04-22T01:47:11;100233.38;;;12.28;63.70
48244;BME280;34053;51.088;6.572;2023-04-22T01:49:42;100237.91;;;12.25;63.97
48244;BME280;34053;51.088;6.572;2023-04-22T01:52:13;100239.50;;;12.29;64.02
48244;BME280;34053;51.088;6.572;2023-04-22T01:54:43;100232.81;;;12.22;64.30
48244;BME280;34053;51.088;6.572;2023-04-22T01:57:14;100237.25;;;12.20;63.69
48244;BME280;34053;51.088;6.572;2023-04-22T01:59:45;100243.38;;;12.20;63.64
48244;BME280;34053;51.088;6.572;2023-04-22T02:02:16;100243.38;;;12.20;63.95
48244;BME280;34053;51.088;6.572;2023-04-22T02:04:46;100236.47;;;12.18;63.80
48244;BME280;34053;51.088;6.572;2023-04-22T02:07:17;100233.03;;;12.16;64.12
48244;BME280;34053;51.088;6.572;2023-04-22T02:09:49;100227.84;;;12.14;63.80
48244;BME280;34053;51.088;6.572;2023-04-22T02:12:19;100226.13;;;12.13;64.04
48244;BME280;34053;51.088;6.572;2023-04-22T02:14:50;100220.06;;;12.11;63.84
48244;BME280;34053;51.088;6.572;2023-04-22T02:17:20;100218.50;;;12.07;63.83
48244;BME280;34053;51.088;6.572;2023-04-22T02:19:51;100219.31;;;12.09;63.64
48244;BME280;34053;51.088;6.572;2023-04-22T02:22:22;100214.16;;;12.06;63.91
48244;BME280;34053;51.088;6.572;2023-04-22T02:24:53;100214.16;;;12.06;63.68
48244;BME280;34053;51.088;6.572;2023-04-22T02:27:23;100219.41;;;12.06;63.92
48244;BME280;34053;51.088;6.572;2023-04-22T02:29:54;100208.97;;;12.04;63.83
48244;BME280;34053;51.088;6.572;2023-04-22T02:32:24;100208.09;;;12.04;63.88
48244;BME280;34053;51.088;6.572;2023-04-22T02:34:55;100217.72;;;12.05;64.26
48244;BME280;34053;51.088;6.572;2023-04-22T02:37:25;100208.06;;;12.05;64.38
48244;BME280;34053;51.088;6.572;2023-04-22T02:39:56;100214.41;;;12.00;63.87
48244;BME280;34053;51.088;6.572;2023-04-22T02:42:26;100209.16;;;12.00;64.21
48244;BME280;34053;51.088;6.572;2023-04-22T02:44:56;100219.69;;;12.00;63.95
48244;BME280;34053;51.088;6.572;2023-04-22T02:47:27;100198.72;;;11.98;64.15
48244;BME280;34053;51.088;6.572;2023-04-22T02:49:57;100204.91;;;11.97;64.26
48244;BME280;34053;51.088;6.572;2023-04-22T02:52:28;100198.72;;;11.98;64.05
48244;BME280;34053;51.088;6.572;2023-04-22T02:54:59;100196.19;;;11.95;63.98
48244;BME280;34053;51.088;6.572;2023-04-22T02:57:29;100191.84;;;11.94;64.44
48244;BME280;34053;51.088;6.572;2023-04-22T03:00:02;100181.38;;;11.92;64.39
48244;BME280;34053;51.088;6.572;2023-04-22T03:02:33;100178.75;;;11.92;64.50
48244;BME280;34053;51.088;6.572;2023-04-22T03:05:04;100186.50;;;11.95;64.33
48244;BME280;34053;51.088;6.572;2023-04-22T03:07:35;100174.28;;;11.94;64.69
48244;BME280;34053;51.088;6.572;2023-04-22T03:10:06;100167.31;;;11.93;64.69
48244;BME280;34053;51.088;6.572;2023-04-22T03:12:37;100175.41;;;11.89;65.40
48244;BME280;34053;51.088;6.572;2023-04-22T03:15:08;100179.78;;;11.88;65.17
48244;BME280;34053;51.088;6.572;2023-04-22T03:17:38;100172.81;;;11.87;65.28
48244;BME280;34053;51.088;6.572;2023-04-22T03:20:09;100171.00;;;11.89;64.75
48244;BME280;34053;51.088;6.572;2023-04-22T03:22:40;100170.06;;;11.90;65.45
48244;BME280;34053;51.088;6.572;2023-04-22T03:25:11;100165.72;;;11.89;64.71
48244;BME280;34053;51.088;6.572;2023-04-22T03:27:41;100164.88;;;11.89;64.91
48244;BME280;34053;51.088;6.572;2023-04-22T03:30:12;100165.81;;;11.88;64.95
48244;BME280;34053;51.088;6.572;2023-04-22T03:32:42;100171.00;;;11.89;64.30
48244;BME280;34053;51.088;6.572;2023-04-22T03:35:13;100170.19;;;11.87;65.41
48244;BME280;34053;51.088;6.572;2023-04-22T03:37:43;100163.19;;;11.88;65.29
48244;BME280;34053;51.088;6.572;2023-04-22T03:40:14;100162.56;;;11.81;66.10
48244;BME280;34053;51.088;6.572;2023-04-22T03:42:45;100162.44;;;11.84;65.00
48244;BME280;34053;51.088;6.572;2023-04-22T03:45:15;100164.28;;;11.82;65.29
48244;BME280;34053;51.088;6.572;2023-04-22T03:47:46;100155.47;;;11.83;65.96
48244;BME280;34053;51.088;6.572;2023-04-22T03:50:16;100152.69;;;11.86;64.96
48244;BME280;34053;51.088;6.572;2023-04-22T03:52:47;100151.94;;;11.84;65.38
48244;BME280;34053;51.088;6.572;2023-04-22T03:55:17;100150.06;;;11.86;65.57
48244;BME280;34053;51.088;6.572;2023-04-22T03:57:48;100146.53;;;11.87;64.82
48244;BME280;34053;51.088;6.572;2023-04-22T04:00:18;100136.16;;;11.84;65.81
48244;BME280;34053;51.088;6.572;2023-04-22T04:02:49;100128.31;;;11.82;65.46
48244;BME280;34053;51.088;6.572;2023-04-22T04:05:19;100130.09;;;11.82;65.50
48244;BME280;34053;51.088;6.572;2023-04-22T04:07:50;100124.84;;;11.82;65.53
48244;BME280;34053;51.088;6.572;2023-04-22T04:10:20;100121.31;;;11.83;65.45
48244;BME280;34053;51.088;6.572;2023-04-22T04:12:50;100118.22;;;11.73;67.99
48244;BME280;34053;51.088;6.572;2023-04-22T04:15:21;100121.69;;;11.74;65.79
48244;BME280;34053;51.088;6.572;2023-04-22T04:17:51;100129.47;;;11.77;66.29
48244;BME280;34053;51.088;6.572;2023-04-22T04:20:22;100126.81;;;11.77;65.86
48244;BME280;34053;51.088;6.572;2023-04-22T04:22:53;100126.88;;;11.75;66.38
48244;BME280;34053;51.088;6.572;2023-04-22T04:25:23;100119.84;;;11.76;66.18
48244;BME280;34053;51.088;6.572;2023-04-22T04:27:54;100125.03;;;11.77;65.96
48244;BME280;34053;51.088;6.572;2023-04-22T04:30:24;100128.50;;;11.78;66.02
48244;BME280;34053;51.088;6.572;2023-04-22T04:32:55;100134.72;;;11.77;65.83
48244;BME280;34053;51.088;6.572;2023-04-22T04:35:27;100140.09;;;11.74;66.32
48244;BME280;34053;51.088;6.572;2023-04-22T04:37:57;100127.78;;;11.74;66.45
48244;BME280;34053;51.088;6.572;2023-04-22T04:40:29;100122.59;;;11.73;66.46
48244;BME280;34053;51.088;6.572;2023-04-22T04:42:59;100113.19;;;11.67;68.18
48244;BME280;34053;51.088;6.572;2023-04-22T04:45:31;100118.41;;;11.69;67.21
48244;BME280;34053;51.088;6.572;2023-04-22T04:48:02;100129.03;;;11.65;67.45
48244;BME280;34053;51.088;6.572;2023-04-22T04:50:32;100116.69;;;11.68;67.01
48244;BME280;34053;51.088;6.572;2023-04-22T04:53:03;100117.28;;;11.74;66.52
48244;BME280;34053;51.088;6.572;2023-04-22T04:55:33;100112.09;;;11.73;66.93
48244;BME280;34053;51.088;6.572;2023-04-22T04:58:04;100104.13;;;11.74;66.88
48244;BME280;34053;51.088;6.572;2023-04-22T05:00:34;100098.88;;;11.74;66.87
48244;BME280;34053;51.088;6.572;2023-04-22T05:03:05;100088.63;;;11.68;70.26
48244;BME280;34053;51.088;6.572;2023-04-22T05:05:35;100095.47;;;11.72;67.73
48244;BME280;34053;51.088;6.572;2023-04-22T05:08:06;100095.06;;;11.61;69.71
48244;BME280;34053;51.088;6.572;2023-04-22T05:10:36;100104.47;;;11.67;68.85
48244;BME280;34053;51.088;6.572;2023-04-22T05:13:06;100104.31;;;11.70;68.69
48244;BME280;34053;51.088;6.572;2023-04-22T05:15:37;100107.03;;;11.68;69.48
48244;BME280;34053;51.088;6.572;2023-04-22T05:18:07;100098.28;;;11.68;69.34
48244;BME280;34053;51.088;6.572;2023-04-22T05:20:38;100099.75;;;11.75;68.54
48244;BME280;34053;51.088;6.572;2023-04-22T05:23:09;100100.72;;;11.72;69.66
48244;BME280;34053;51.088;6.572;2023-04-22T05:25:39;100102.50;;;11.72;70.60
48244;BME280;34053;51.088;6.572;2023-04-22T05:28:09;100113.63;;;11.78;69.57
48244;BME280;34053;51.088;6.572;2023-04-22T05:30:40;100108.44;;;11.77;71.69
48244;BME280;34053;51.088;6.572;2023-04-22T05:33:10;100116.84;;;11.85;68.96
48244;BME280;34053;51.088;6.572;2023-04-22T05:35:41;100115.38;;;11.78;69.96
48244;BME280;34053;51.088;6.572;2023-04-22T05:38:11;100107.19;;;11.86;69.22
48244;BME280;34053;51.088;6.572;2023-04-22T05:40:42;100119.53;;;11.84;69.85
48244;BME280;34053;51.088;6.572;2023-04-22T05:43:12;100115.84;;;11.88;69.81
48244;BME280;34053;51.088;6.572;2023-04-22T05:45:43;100113.16;;;11.89;69.50
48244;BME280;34053;51.088;6.572;2023-04-22T05:48:13;100114.69;;;11.95;68.71
48244;BME280;34053;51.088;6.572;2023-04-22T05:50:44;100109.19;;;12.01;68.35
48244;BME280;34053;51.088;6.572;2023-04-22T05:53:14;100116.16;;;12.02;68.59
48244;BME280;34053;51.088;6.572;2023-04-22T05:55:45;100116.06;;;12.04;68.40
48244;BME280;34053;51.088;6.572;2023-04-22T05:58:15;100112.41;;;12.08;69.16
48244;BME280;34053;51.088;6.572;2023-04-22T06:00:45;100107.22;;;12.06;69.45
48244;BME280;34053;51.088;6.572;2023-04-22T06:03:16;100108.66;;;12.14;68.39
48244;BME280;34053;51.088;6.572;2023-04-22T06:05:46;100107.78;;;12.13;68.82
48244;BME280;34053;51.088;6.572;2023-04-22T06:08:17;100116.47;;;12.15;68.93
48244;BME280;34053;51.088;6.572;2023-04-22T06:10:49;100112.13;;;12.14;69.27
48244;BME280;34053;51.088;6.572;2023-04-22T06:13:19;100110.31;;;12.16;70.06
48244;BME280;34053;51.088;6.572;2023-04-22T06:15:49;100097.78;;;12.21;69.95
48244;BME280;34053;51.088;6.572;2023-04-22T06:18:20;100102.78;;;12.27;69.78
48244;BME280;34053;51.088;6.572;2023-04-22T06:20:50;100108.91;;;12.28;69.76
48244;BME280;34053;51.088;6.572;2023-04-22T06:23:21;100105.28;;;12.31;70.89
48244;BME280;34053;51.088;6.572;2023-04-22T06:25:52;100097.63;;;12.45;70.45
48244;BME280;34053;51.088;6.572;2023-04-22T06:28:22;100100.91;;;12.50;69.54
48244;BME280;34053;51.088;6.572;2023-04-22T06:30:53;100104.06;;;12.58;69.43
48244;BME280;34053;51.088;6.572;2023-04-22T06:33:23;100101.44;;;12.58;69.04
48244;BME280;34053;51.088;6.572;2023-04-22T06:35:54;100097.28;;;12.53;70.53
48244;BME280;34053;51.088;6.572;2023-04-22T06:38:25;100103.91;;;12.62;69.68
48244;BME280;34053;51.088;6.572;2023-04-22T06:40:55;100095.78;;;12.47;72.00
48244;BME280;34053;51.088;6.572;2023-04-22T06:43:26;100099.72;;;12.57;70.08
48244;BME280;34053;51.088;6.572;2023-04-22T06:45:56;100095.09;;;12.63;70.70
48244;BME280;34053;51.088;6.572;2023-04-22T06:48:27;100100.06;;;12.69;70.08
48244;BME280;34053;51.088;6.572;2023-04-22T06:50:57;100104.16;;;12.76;68.99
48244;BME280;34053;51.088;6.572;2023-04-22T06:53:28;100093.63;;;12.76;70.16
48244;BME280;34053;51.088;6.572;2023-04-22T06:55:58;100097.81;;;12.80;69.41
48244;BME280;34053;51.088;6.572;2023-04-22T06:58:28;100102.34;;;12.77;72.34
48244;BME280;34053;51.088;6.572;2023-04-22T07:00:59;100103.69;;;12.66;74.49
48244;BME280;34053;51.088;6.572;2023-04-22T07:03:29;100110.25;;;12.77;71.14
48244;BME280;34053;51.088;6.572;2023-04-22T07:06:00;100100.09;;;12.88;70.29
48244;BME280;34053;51.088;6.572;2023-04-22T07:08:30;100103.44;;;12.91;70.46
48244;BME280;34053;51.088;6.572;2023-04-22T07:11:01;100093.94;;;12.87;71.26
48244;BME280;34053;51.088;6.572;2023-04-22T07:13:34;100092.59;;;12.98;70.61
48244;BME280;34053;51.088;6.572;2023-04-22T07:16:05;100092.03;;;12.91;71.99
48244;BME280;34053;51.088;6.572;2023-04-22T07:18:35;100087.34;;;12.98;72.86
48244;BME280;34053;51.088;6.572;2023-04-22T07:21:06;100087.81;;;13.06;72.04
48244;BME280;34053;51.088;6.572;2023-04-22T07:23:36;100085.19;;;13.06;74.13
48244;BME280;34053;51.088;6.572;2023-04-22T07:26:07;100076.38;;;13.07;72.02
48244;BME280;34053;51.088;6.572;2023-04-22T07:28:40;100072.72;;;13.10;73.54
48244;BME280;34053;51.088;6.572;2023-04-22T07:31:17;100075.22;;;13.13;72.47
48244;BME280;34053;51.088;6.572;2023-04-22T07:33:51;100072.38;;;13.17;72.74
48244;BME280;34053;51.088;6.572;2023-04-22T07:36:21;100068.94;;;13.15;72.83
48244;BME280;34053;51.088;6.572;2023-04-22T07:38:55;100052.41;;;13.31;71.79
48244;BME280;34053;51.088;6.572;2023-04-22T07:41:25;100053.47;;;13.27;72.54
48244;BME280;34053;51.088;6.572;2023-04-22T07:43:56;100049.53;;;13.35;72.59
48244;BME280;34053;51.088;6.572;2023-04-22T07:46:26;100045.28;;;13.33;71.23
48244;BME280;34053;51.088;6.572;2023-04-22T07:48:57;100051.25;;;13.36;70.87
48244;BME280;34053;51.088;6.572;2023-04-22T07:51:27;100050.28;;;13.39;71.29
48244;BME280;34053;51.088;6.572;2023-04-22T07:53:58;100059.72;;;13.43;72.21
48244;BME280;34053;51.088;6.572;2023-04-22T07:56:28;100062.91;;;13.50;71.26
48244;BME280;34053;51.088;6.572;2023-04-22T07:58:58;100061.75;;;13.56;71.36
48244;BME280;34053;51.088;6.572;2023-04-22T08:01:29;100057.97;;;13.61;71.41
48244;BME280;34053;51.088;6.572;2023-04-22T08:04:00;100055.09;;;13.66;71.11
48244;BME280;34053;51.088;6.572;2023-04-22T08:06:30;100052.84;;;13.76;70.97
48244;BME280;34053;51.088;6.572;2023-04-22T08:09:01;100047.56;;;13.76;71.46
48244;BME280;34053;51.088;6.572;2023-04-22T08:11:31;100039.09;;;13.87;70.23
48244;BME280;34053;51.088;6.572;2023-04-22T08:14:02;100037.22;;;13.89;69.81
48244;BME280;34053;51.088;6.572;2023-04-22T08:16:32;100020.41;;;13.91;70.41
48244;BME280;34053;51.088;6.572;2023-04-22T08:19:03;100020.16;;;13.96;71.15
48244;BME280;34053;51.088;6.572;2023-04-22T08:21:33;100029.28;;;14.06;70.85
48244;BME280;34053;51.088;6.572;2023-04-22T08:24:06;100035.84;;;14.15;70.84
48244;BME280;34053;51.088;6.572;2023-04-22T08:26:36;100034.84;;;14.17;70.51
48244;BME280;34053;51.088;6.572;2023-04-22T08:29:09;100035.47;;;14.23;69.13
48244;BME280;34053;51.088;6.572;2023-04-22T08:31:40;100031.06;;;14.39;68.87
48244;BME280;34053;51.088;6.572;2023-04-22T08:34:11;100031.31;;;14.35;69.10
48244;BME280;34053;51.088;6.572;2023-04-22T08:36:41;100034.47;;;14.41;68.85
48244;BME280;34053;51.088;6.572;2023-04-22T08:39:12;100021.19;;;14.43;68.20
48244;BME280;34053;51.088;6.572;2023-04-22T08:41:43;100028.00;;;14.47;67.53
48244;BME280;34053;51.088;6.572;2023-04-22T08:44:15;100016.94;;;14.56;67.31
48244;BME280;34053;51.088;6.572;2023-04-22T08:46:46;100016.94;;;14.56;67.76
48244;BME280;34053;51.088;6.572;2023-04-22T08:49:18;100018.50;;;14.60;68.69
48244;BME280;34053;51.088;6.572;2023-04-22T08:51:49;100021.50;;;14.70;67.69
48244;BME280;34053;51.088;6.572;2023-04-22T08:54:19;100022.06;;;14.75;67.35
48244;BME280;34053;51.088;6.572;2023-04-22T08:56:51;100017.41;;;14.81;68.26
48244;BME280;34053;51.088;6.572;2023-04-22T08:59:21;100007.63;;;14.83;68.45
48244;BME280;34053;51.088;6.572;2023-04-22T09:01:53;100005.72;;;15.01;68.46
48244;BME280;34053;51.088;6.572;2023-04-22T09:04:24;99999.41;;;15.03;67.66
48244;BME280;34053;51.088;6.572;2023-04-22T09:06:55;100006.44;;;15.19;66.78
48244;BME280;34053;51.088;6.572;2023-04-22T09:09:27;100001.16;;;15.19;64.90
48244;BME280;34053;51.088;6.572;2023-04-22T09:11:59;100002.50;;;15.26;64.37
48244;BME280;34053;51.088;6.572;2023-04-22T09:14:31;100006.84;;;15.27;64.70
48244;BME280;34053;51.088;6.572;2023-04-22T09:17:02;100004.44;;;15.38;64.83
48244;BME280;34053;51.088;6.572;2023-04-22T09:19:33;100002.63;;;15.39;63.67
48244;BME280;34053;51.088;6.572;2023-04-22T09:22:03;99999.81;;;15.42;63.63
48244;BME280;34053;51.088;6.572;2023-04-22T09:24:34;99997.28;;;15.40;64.16
48244;BME280;34053;51.088;6.572;2023-04-22T09:27:05;99987.28;;;15.60;64.19
48244;BME280;34053;51.088;6.572;2023-04-22T09:29:35;99985.41;;;15.62;63.09
48244;BME280;34053;51.088;6.572;2023-04-22T09:32:09;99987.97;;;15.64;63.09
48244;BME280;34053;51.088;6.572;2023-04-22T09:34:50;99991.19;;;15.69;62.20
48244;BME280;34053;51.088;6.572;2023-04-22T09:37:24;99985.94;;;15.83;61.95
48244;BME280;34053;51.088;6.572;2023-04-22T09:39:55;99977.72;;;15.88;62.17
48244;BME280;34053;51.088;6.572;2023-04-22T09:42:26;99980.88;;;15.95;61.89
48244;BME280;34053;51.088;6.572;2023-04-22T09:44:57;99973.88;;;15.94;62.85
48244;BME280;34053;51.088;6.572;2023-04-22T09:47:34;99978.19;;;16.09;63.38
48244;BME280;34053;51.088;6.572;2023-04-22T09:50:06;99973.34;;;16.16;63.41
48244;BME280;34053;51.088;6.572;2023-04-22T09:52:36;99983.59;;;16.22;63.56
48244;BME280;34053;51.088;6.572;2023-04-22T09:55:08;99984.31;;;16.39;62.41
48244;BME280;34053;51.088;6.572;2023-04-22T09:57:38;99983.38;;;16.40;62.23
48244;BME280;34053;51.088;6.572;2023-04-22T10:00:11;99997.91;;;16.47;62.60
48244;BME280;34053;51.088;6.572;2023-04-22T10:02:43;99996.69;;;16.52;62.56
48244;BME280;34053;51.088;6.572;2023-04-22T10:05:13;99997.13;;;16.59;62.11
48244;BME280;34053;51.088;6.572;2023-04-22T10:07:44;99993.25;;;16.65;62.27
48244;BME280;34053;51.088;6.572;2023-04-22T10:10:14;99995.94;;;16.78;61.13
48244;BME280;34053;51.088;6.572;2023-04-22T10:12:46;99996.69;;;16.94;59.41
48244;BME280;34053;51.088;6.572;2023-04-22T10:15:17;99995.47;;;16.86;59.80
48244;BME280;34053;51.088;6.572;2023-04-22T10:17:49;100003.84;;;16.92;59.55
48244;BME280;34053;51.088;6.572;2023-04-22T10:20:21;99997.34;;;16.98;58.75
48244;BME280;34053;51.088;6.572;2023-04-22T10:22:55;100004.03;;;17.04;59.35
48244;BME280;34053;51.088;6.572;2023-04-22T10:25:26;100004.53;;;16.96;59.32
48244;BME280;34053;51.088;6.572;2023-04-22T10:28:03;100003.16;;;17.03;58.60
48244;BME280;34053;51.088;6.572;2023-04-22T10:30:37;100008.09;;;17.09;58.88
48244;BME280;34053;51.088;6.572;2023-04-22T10:36:10;99996.47;;;17.25;60.14
48244;BME280;34053;51.088;6.572;2023-04-22T10:41:28;100009.34;;;17.44;58.19
48244;BME280;34053;51.088;6.572;2023-04-22T10:44:06;100005.44;;;17.50;57.32
48244;BME280;34053;51.088;6.572;2023-04-22T10:49:13;99997.88;;;17.56;57.15
48244;BME280;34053;51.088;6.572;2023-04-22T10:57:11;99999.09;;;17.91;57.58
48244;BME280;34053;51.088;6.572;2023-04-22T10:59:57;100002.38;;;17.94;56.92
48244;BME280;34053;51.088;6.572;2023-04-22T11:02:35;100008.88;;;18.03;56.82
48244;BME280;34053;51.088;6.572;2023-04-22T11:07:49;100001.13;;;18.13;57.30
48244;BME280;34053;51.088;6.572;2023-04-22T11:11:07;99996.00;;;18.23;55.72
48244;BME280;34053;51.088;6.572;2023-04-22T11:13:17;100000.34;;;18.37;56.61
48244;BME280;34053;51.088;6.572;2023-04-22T11:15:52;99995.63;;;18.53;56.01
48244;BME280;34053;51.088;6.572;2023-04-22T11:18:25;99989.53;;;18.64;55.97
48244;BME280;34053;51.088;6.572;2023-04-22T11:20:56;99991.59;;;18.72;55.92
48244;BME280;34053;51.088;6.572;2023-04-22T11:23:31;99982.94;;;18.70;54.90
48244;BME280;34053;51.088;6.572;2023-04-22T11:26:04;99990.44;;;18.76;56.49
48244;BME280;34053;51.088;6.572;2023-04-22T11:28:44;99988.06;;;18.84;56.14
48244;BME280;34053;51.088;6.572;2023-04-22T11:31:17;99982.16;;;19.05;55.60
48244;BME280;34053;51.088;6.572;2023-04-22T11:33:48;99968.63;;;19.08;56.44
48244;BME280;34053;51.088;6.572;2023-04-22T11:36:19;99975.31;;;19.14;56.39
48244;BME280;34053;51.088;6.572;2023-04-22T11:38:54;99975.22;;;19.27;54.68
48244;BME280;34053;51.088;6.572;2023-04-22T11:41:26;99975.28;;;19.49;54.60
48244;BME280;34053;51.088;6.572;2023-04-22T11:43:59;99976.97;;;19.50;54.93
48244;BME280;34053;51.088;6.572;2023-04-22T11:46:30;99985.00;;;19.62;53.79
48244;BME280;34053;51.088;6.572;2023-04-22T11:49:13;99977.75;;;19.75;52.91
48244;BME280;34053;51.088;6.572;2023-04-22T11:51:54;99980.66;;;19.84;53.38
48244;BME280;34053;51.088;6.572;2023-04-22T11:54:33;99984.94;;;19.97;52.51
48244;BME280;34053;51.088;6.572;2023-04-22T11:57:06;99981.06;;;19.90;53.93
48244;BME280;34053;51.088;6.572;2023-04-22T11:59:37;99980.34;;;20.11;53.77
48244;BME280;34053;51.088;6.572;2023-04-22T12:02:08;99981.81;;;20.15;53.16
48244;BME280;34053;51.088;6.572;2023-04-22T12:04:39;99980.34;;;20.22;52.14
48244;BME280;34053;51.088;6.572;2023-04-22T12:07:10;99979.00;;;20.17;52.79
48244;BME280;34053;51.088;6.572;2023-04-22T12:09:41;99984.94;;;20.20;51.82
48244;BME280;34053;51.088;6.572;2023-04-22T12:12:11;99991.38;;;20.18;51.66
48244;BME280;34053;51.088;6.572;2023-04-22T12:14:44;99995.72;;;20.19;51.25
48244;BME280;34053;51.088;6.572;2023-04-22T12:17:15;99991.00;;;20.11;51.36
48244;BME280;34053;51.088;6.572;2023-04-22T12:19:57;99990.16;;;20.10;51.33
48244;BME280;34053;51.088;6.572;2023-04-22T12:22:29;99994.16;;;20.16;52.00
48244;BME280;34053;51.088;6.572;2023-04-22T12:24:59;99980.72;;;20.18;52.29
48244;BME280;34053;51.088;6.572;2023-04-22T12:27:30;99991.34;;;20.29;52.54
48244;BME280;34053;51.088;6.572;2023-04-22T12:30:01;99988.44;;;20.32;53.02
48244;BME280;34053;51.088;6.572;2023-04-22T12:32:32;99987.25;;;20.36;52.20
48244;BME280;34053;51.088;6.572;2023-04-22T12:35:03;99985.41;;;20.37;51.70
48244;BME280;34053;51.088;6.572;2023-04-22T12:37:34;99993.28;;;20.38;53.17
48244;BME280;34053;51.088;6.572;2023-04-22T12:40:05;99991.34;;;20.29;51.16
48244;BME280;34053;51.088;6.572;2023-04-22T12:42:35;100005.53;;;20.07;50.84
48244;BME280;34053;51.088;6.572;2023-04-22T12:45:07;100001.75;;;19.98;51.10
48244;BME280;34053;51.088;6.572;2023-04-22T12:47:38;100009.00;;;19.85;50.60
48244;BME280;34053;51.088;6.572;2023-04-22T12:50:09;100004.44;;;19.87;50.46
48244;BME280;34053;51.088;6.572;2023-04-22T12:52:39;100005.59;;;19.82;50.76
48244;BME280;34053;51.088;6.572;2023-04-22T12:55:09;100014.06;;;19.76;51.47
48244;BME280;34053;51.088;6.572;2023-04-22T12:57:40;100024.44;;;19.68;54.50
48244;BME280;34053;51.088;6.572;2023-04-22T13:00:11;100040.50;;;19.55;55.76
48244;BME280;34053;51.088;6.572;2023-04-22T13:02:46;100028.63;;;19.24;58.24
48244;BME280;34053;51.088;6.572;2023-04-22T13:05:18;100040.47;;;19.19;58.87
48244;BME280;34053;51.088;6.572;2023-04-22T13:07:48;100044.19;;;19.41;58.82
48244;BME280;34053;51.088;6.572;2023-04-22T13:10:19;100044.38;;;19.27;59.13
48244;BME280;34053;51.088;6.572;2023-04-22T13:12:51;100042.78;;;19.00;59.38
48244;BME280;34053;51.088;6.572;2023-04-22T13:15:22;100028.16;;;19.30;59.17
48244;BME280;34053;51.088;6.572;2023-04-22T13:17:55;100030.75;;;19.31;59.60
48244;BME280;34053;51.088;6.572;2023-04-22T13:20:26;100024.81;;;19.28;59.54
48244;BME280;34053;51.088;6.572;2023-04-22T13:22:56;100026.09;;;19.22;60.08
48244;BME280;34053;51.088;6.572;2023-04-22T13:25:27;100021.97;;;19.18;59.16
48244;BME280;34053;51.088;6.572;2023-04-22T13:27:58;100013.75;;;19.21;58.88
48244;BME280;34053;51.088;6.572;2023-04-22T13:30:28;100022.09;;;19.16;58.75